createdAt,value
2023-04-06T00:00:59.783Z,102371.06
2023-04-06T00:03:26.751Z,102365.78
2023-04-06T00:05:53.814Z,102367.44
2023-04-06T00:08:22.513Z,102363.75
2023-04-06T00:10:49.213Z,102378.53
2023-04-06T00:13:16.339Z,102372.31
2023-04-06T00:15:43.104Z,102374.91
2023-04-06T00:18:09.982Z,102374.69
2023-04-06T00:20:36.655Z,102377.25
2023-04-06T00:23:03.648Z,102375.47
2023-04-06T00:25:30.488Z,102378.03
2023-04-06T00:27:57.184Z,102372.84
2023-04-06T00:30:23.845Z,102377.25
2023-04-06T00:32:51.252Z,102379.78
2023-04-06T00:35:18.159Z,102378.94
2023-04-06T00:37:49.136Z,102379.97
2023-04-06T00:40:16.489Z,102372.16
2023-04-06T00:42:43.283Z,102377.38
2023-04-06T00:45:10.852Z,102380.78
2023-04-06T00:47:37.772Z,102379.88
2023-04-06T00:50:04.921Z,102386.00
2023-04-06T00:52:31.821Z,102381.56
2023-04-06T00:54:58.571Z,102382.47
2023-04-06T00:57:25.507Z,102382.41
2023-04-06T00:59:53.747Z,102379.75
2023-04-06T01:02:20.770Z,102381.47
2023-04-06T01:04:47.573Z,102380.50
2023-04-06T01:07:14.286Z,102382.03
2023-04-06T01:09:43.026Z,102383.69
2023-04-06T01:12:09.981Z,102378.47
2023-04-06T01:14:36.993Z,102381.09
2023-04-06T01:17:03.754Z,102386.25
2023-04-06T01:19:30.486Z,102392.31
2023-04-06T01:21:57.320Z,102389.63
2023-04-06T01:24:24.322Z,102387.00
2023-04-06T01:26:51.234Z,102382.59
2023-04-06T01:29:18.094Z,102378.28
2023-04-06T01:31:44.884Z,102387.75
2023-04-06T01:34:11.620Z,102382.41
2023-04-06T01:36:38.321Z,102378.69
2023-04-06T01:39:05.059Z,102377.84
2023-04-06T01:41:32.044Z,102379.59
2023-04-06T01:43:59.339Z,102382.31
2023-04-06T01:46:26.127Z,102386.72
2023-04-06T01:48:53.164Z,102376.38
2023-04-06T01:51:19.950Z,102383.41
2023-04-06T01:53:46.821Z,102386.16
2023-04-06T01:56:13.635Z,102388.97
2023-04-06T01:58:40.645Z,102387.47
2023-04-06T02:01:07.599Z,102392.84
2023-04-06T02:03:34.494Z,102384.25
2023-04-06T02:06:01.261Z,102390.41
2023-04-06T02:08:28.019Z,102386.00
2023-04-06T02:10:54.732Z,102388.59
2023-04-06T02:13:21.527Z,102395.66
2023-04-06T02:15:48.308Z,102391.44
2023-04-06T02:18:15.168Z,102393.19
2023-04-06T02:20:42.075Z,102389.84
2023-04-06T02:23:08.811Z,102392.63
2023-04-06T02:25:36.139Z,102396.38
2023-04-06T02:28:02.912Z,102399.22
2023-04-06T02:30:30.606Z,102399.34
2023-04-06T02:32:57.313Z,102388.13
2023-04-06T02:35:24.096Z,102394.28
2023-04-06T02:37:51.136Z,102393.56
2023-04-06T02:40:18.053Z,102394.63
2023-04-06T02:42:44.822Z,102390.41
2023-04-06T02:45:11.561Z,102391.38
2023-04-06T02:47:38.341Z,102398.47
2023-04-06T02:50:06.542Z,102401.19
2023-04-06T02:52:33.289Z,102399.53
2023-04-06T02:55:00.134Z,102400.53
2023-04-06T02:57:27.092Z,102403.22
2023-04-06T02:59:53.805Z,102399.84
2023-04-06T03:02:20.688Z,102404.19
2023-04-06T03:04:48.555Z,102401.56
2023-04-06T03:07:15.521Z,102394.50
2023-04-06T03:09:42.187Z,102400.75
2023-04-06T03:12:10.180Z,102393.84
2023-04-06T03:14:37.182Z,102405.38
2023-04-06T03:17:03.966Z,102406.28
2023-04-06T03:19:30.701Z,102403.75
2023-04-06T03:21:57.640Z,102396.78
2023-04-06T03:24:24.326Z,102398.56
2023-04-06T03:26:51.038Z,102399.59
2023-04-06T03:29:17.805Z,102407.53
2023-04-06T03:31:44.823Z,102403.31
2023-04-06T03:34:11.749Z,102400.81
2023-04-06T03:36:38.548Z,102405.19
2023-04-06T03:39:05.987Z,102406.91
2023-04-06T03:41:33.083Z,102414.81
2023-04-06T03:43:59.748Z,102408.72
2023-04-06T03:46:26.614Z,102419.19
2023-04-06T03:48:53.538Z,102414.94
2023-04-06T03:51:20.347Z,102417.63
2023-04-06T03:53:47.301Z,102416.75
2023-04-06T03:56:14.101Z,102424.72
2023-04-06T03:58:41.357Z,102423.94
2023-04-06T04:01:08.147Z,102423.91
2023-04-06T04:03:35.198Z,102415.16
2023-04-06T04:06:01.966Z,102423.91
2023-04-06T04:08:28.765Z,102425.69
2023-04-06T04:10:55.750Z,102420.53
2023-04-06T04:13:22.468Z,102420.56
2023-04-06T04:15:49.203Z,102425.91
2023-04-06T04:18:16.011Z,102426.84
2023-04-06T04:20:42.802Z,102423.38
2023-04-06T04:23:09.548Z,102432.06
2023-04-06T04:25:36.244Z,102430.25
2023-04-06T04:28:03.619Z,102435.59
2023-04-06T04:30:30.395Z,102438.25
2023-04-06T04:32:57.245Z,102435.56
2023-04-06T04:35:24.266Z,102441.84
2023-04-06T04:37:50.995Z,102425.13
2023-04-06T04:40:18.445Z,102438.38
2023-04-06T04:42:46.019Z,102442.75
2023-04-06T04:45:12.940Z,102450.66
2023-04-06T04:47:39.722Z,102445.44
2023-04-06T04:50:06.993Z,102441.97
2023-04-06T04:52:33.688Z,102449.88
2023-04-06T04:55:00.417Z,102448.94
2023-04-06T04:57:27.222Z,102449.88
2023-04-06T04:59:55.496Z,102449.94
2023-04-06T05:02:23.675Z,102457.88
2023-04-06T05:04:50.491Z,102454.44
2023-04-06T05:07:19.666Z,102458.06
2023-04-06T05:09:46.627Z,102464.25
2023-04-06T05:12:13.592Z,102458.16
2023-04-06T05:14:40.597Z,102459.09
2023-04-06T05:17:07.659Z,102463.50
2023-04-06T05:19:34.482Z,102455.72
2023-04-06T05:22:01.427Z,102457.47
2023-04-06T05:24:28.257Z,102467.19
2023-04-06T05:26:55.646Z,102461.13
2023-04-06T05:29:22.635Z,102458.56
2023-04-06T05:31:49.531Z,102460.41
2023-04-06T05:34:16.435Z,102463.06
2023-04-06T05:36:43.204Z,102464.91
2023-04-06T05:39:10.210Z,102462.34
2023-04-06T05:41:37.156Z,102461.44
2023-04-06T05:44:03.885Z,102455.44
2023-04-06T05:46:30.761Z,102461.66
2023-04-06T05:48:57.631Z,102468.78
2023-04-06T05:51:24.598Z,102472.25
2023-04-06T05:53:51.371Z,102478.41
2023-04-06T05:56:18.403Z,102478.47
2023-04-06T05:58:45.154Z,102480.19
2023-04-06T06:01:11.888Z,102470.72
2023-04-06T06:03:38.680Z,102474.28
2023-04-06T06:06:06.275Z,102470.81
2023-04-06T06:08:33.080Z,102469.06
2023-04-06T06:10:59.944Z,102472.66
2023-04-06T06:13:26.806Z,102487.66
2023-04-06T06:15:53.667Z,102482.44
2023-04-06T06:18:20.452Z,102485.06
2023-04-06T06:20:47.348Z,102482.41
2023-04-06T06:23:14.047Z,102485.16
2023-04-06T06:25:40.874Z,102482.63
2023-04-06T06:28:07.587Z,102488.78
2023-04-06T06:30:34.363Z,102488.03
2023-04-06T06:33:01.392Z,102487.16
2023-04-06T06:35:28.214Z,102492.47
2023-04-06T06:37:55.071Z,102483.72
2023-04-06T06:40:25.288Z,102489.97
2023-04-06T06:42:52.588Z,102493.53
2023-04-06T06:45:19.726Z,102504.06
2023-04-06T06:47:47.046Z,102508.53
2023-04-06T06:50:13.984Z,102505.13
2023-04-06T06:52:41.486Z,102503.50
2023-04-06T06:55:09.478Z,102509.78
2023-04-06T06:57:36.221Z,102512.53
2023-04-06T07:00:03.664Z,102505.59
2023-04-06T07:02:30.414Z,102514.38
2023-04-06T07:04:57.269Z,102511.84
2023-04-06T07:07:24.059Z,102500.50
2023-04-06T07:09:51.022Z,102507.59
2023-04-06T07:12:17.768Z,102508.53
2023-04-06T07:14:44.532Z,102502.41
2023-04-06T07:17:11.456Z,102503.38
2023-04-06T07:19:38.254Z,102509.72
2023-04-06T07:22:05.772Z,102500.19
2023-04-06T07:24:32.668Z,102507.28
2023-04-06T07:27:03.041Z,102507.44
2023-04-06T07:29:29.893Z,102518.00
2023-04-06T07:31:56.822Z,102519.81
2023-04-06T07:34:23.843Z,102519.91
2023-04-06T07:36:51.030Z,102517.38
2023-04-06T07:39:17.703Z,102518.34
2023-04-06T07:41:44.423Z,102517.56
2023-04-06T07:44:11.238Z,102519.44
2023-04-06T07:46:38.023Z,102519.50
2023-04-06T07:49:05.044Z,102515.25
2023-04-06T07:51:32.237Z,102518.84
2023-04-06T07:53:58.996Z,102520.66
2023-04-06T07:56:26.257Z,102514.69
2023-04-06T07:58:54.515Z,102519.22
2023-04-06T08:01:21.425Z,102519.31
2023-04-06T08:03:48.350Z,102520.31
2023-04-06T08:06:15.457Z,102523.88
2023-04-06T08:08:42.792Z,102526.56
2023-04-06T08:11:10.098Z,102526.69
2023-04-06T08:13:37.044Z,102528.53
2023-04-06T08:16:04.147Z,102526.91
2023-04-06T08:18:31.096Z,102523.56
2023-04-06T08:20:58.131Z,102532.56
2023-04-06T08:23:24.859Z,102536.25
2023-04-06T08:25:53.774Z,102532.91
2023-04-06T08:28:20.563Z,102534.75
2023-04-06T08:30:47.335Z,102527.88
2023-04-06T08:33:14.343Z,102534.94
2023-04-06T08:35:41.199Z,102534.13
2023-04-06T08:38:08.310Z,102541.25
2023-04-06T08:40:41.501Z,102534.25
2023-04-06T08:43:12.595Z,102539.56
2023-04-06T08:45:40.548Z,102529.06
2023-04-06T08:48:07.937Z,102522.91
2023-04-06T08:50:35.041Z,102532.50
2023-04-06T08:53:02.303Z,102532.47
2023-04-06T08:55:29.301Z,102531.50
2023-04-06T08:57:56.833Z,102532.38
2023-04-06T09:00:25.371Z,102528.94
2023-04-06T09:02:54.977Z,102528.03
2023-04-06T09:05:22.805Z,102528.09
2023-04-06T09:07:49.784Z,102529.00
2023-04-06T09:10:18.334Z,102528.13
2023-04-06T09:12:45.415Z,102532.56
2023-04-06T09:15:24.823Z,102527.34
2023-04-06T09:17:53.149Z,102528.28
2023-04-06T09:20:27.551Z,102526.59
2023-04-06T09:22:54.534Z,102526.53
2023-04-06T09:25:24.018Z,102524.78
2023-04-06T09:28:03.569Z,102526.53
2023-04-06T09:30:30.765Z,102520.56
2023-04-06T09:32:58.814Z,102524.19
2023-04-06T09:35:27.617Z,102520.81
2023-04-06T09:37:55.143Z,102524.41
2023-04-06T09:40:23.383Z,102522.72
2023-04-06T09:42:53.765Z,102522.75
2023-04-06T09:45:22.108Z,102520.94
2023-04-06T09:47:51.083Z,102513.88
2023-04-06T09:50:20.158Z,102526.22
2023-04-06T09:52:52.308Z,102523.69
2023-04-06T09:55:54.181Z,102524.63
2023-04-06T09:58:27.301Z,102527.38
2023-04-06T10:01:07.084Z,102523.97
2023-04-06T10:03:53.708Z,102522.31
2023-04-06T10:06:24.223Z,102518.03
2023-04-06T10:08:55.165Z,102525.16
2023-04-06T10:11:22.687Z,102523.47
2023-04-06T10:13:51.140Z,102515.63
2023-04-06T10:16:18.696Z,102518.34
2023-04-06T10:18:52.035Z,102529.00
2023-04-06T10:21:24.992Z,102523.91
2023-04-06T10:24:02.912Z,102525.75
2023-04-06T10:26:29.653Z,102518.81
2023-04-06T10:28:56.499Z,102512.75
2023-04-06T10:31:27.507Z,102517.19
2023-04-06T10:34:04.156Z,102516.34
2023-04-06T10:36:35.267Z,102510.22
2023-04-06T10:39:04.940Z,102516.44
2023-04-06T10:41:49.951Z,102511.19
2023-04-06T10:44:24.300Z,102509.38
2023-04-06T10:46:56.432Z,102516.41
2023-04-06T10:49:25.230Z,102512.88
2023-04-06T10:51:56.247Z,102509.38
2023-04-06T10:54:25.753Z,102509.41
2023-04-06T10:56:52.444Z,102514.69
2023-04-06T10:59:23.092Z,102511.22
2023-04-06T11:01:50.715Z,102500.66
2023-04-06T11:04:19.129Z,102512.97
2023-04-06T11:06:50.621Z,102503.31
2023-04-06T11:09:32.423Z,102505.06
2023-04-06T11:11:59.311Z,102506.81
2023-04-06T11:14:27.836Z,102500.69
2023-04-06T11:16:54.885Z,102497.16
2023-04-06T11:19:21.756Z,102504.22
2023-04-06T11:21:49.864Z,102502.50
2023-04-06T11:24:18.225Z,102499.91
2023-04-06T11:26:56.153Z,102506.09
2023-04-06T11:29:28.887Z,102499.06
2023-04-06T11:32:01.070Z,102493.75
2023-04-06T11:34:30.844Z,102498.13
2023-04-06T11:37:03.747Z,102490.13
2023-04-06T11:39:31.338Z,102496.25
2023-04-06T11:42:08.417Z,102496.25
2023-04-06T11:44:38.082Z,102494.41
2023-04-06T11:47:06.492Z,102494.34
2023-04-06T11:49:35.206Z,102489.91
2023-04-06T11:52:02.525Z,102488.13
2023-04-06T11:54:38.868Z,102486.44
2023-04-06T11:57:06.782Z,102487.50
2023-04-06T11:59:34.211Z,102491.97
2023-04-06T12:02:02.493Z,102489.44
2023-04-06T12:04:29.299Z,102489.50
2023-04-06T12:06:56.553Z,102485.16
2023-04-06T12:09:23.252Z,102486.06
2023-04-06T12:11:50.184Z,102484.34
2023-04-06T12:14:17.171Z,102480.84
2023-04-06T12:16:44.811Z,102479.06
2023-04-06T12:19:11.858Z,102470.28
2023-04-06T12:21:38.577Z,102479.97
2023-04-06T12:24:06.550Z,102480.88
2023-04-06T12:26:34.182Z,102478.25
2023-04-06T12:29:08.201Z,102476.53
2023-04-06T12:31:40.138Z,102470.38
2023-04-06T12:34:07.036Z,102467.78
2023-04-06T12:36:34.402Z,102470.44
2023-04-06T12:39:01.997Z,102459.03
2023-04-06T12:41:29.242Z,102459.03
2023-04-06T12:43:56.122Z,102451.13
2023-04-06T12:46:24.203Z,102445.84
2023-04-06T12:48:54.944Z,102452.00
2023-04-06T12:51:21.945Z,102448.50
2023-04-06T12:53:49.074Z,102451.16
2023-04-06T12:56:19.564Z,102452.06
2023-04-06T12:58:46.993Z,102446.78
2023-04-06T13:01:14.226Z,102447.69
2023-04-06T13:03:42.428Z,102450.38
2023-04-06T13:06:09.643Z,102449.50
2023-04-06T13:08:38.430Z,102447.69
2023-04-06T13:11:06.188Z,102436.22
2023-04-06T13:13:32.999Z,102444.13
2023-04-06T13:16:05.745Z,102445.91
2023-04-06T13:18:33.546Z,102440.66
2023-04-06T13:21:02.942Z,102445.03
2023-04-06T13:23:29.704Z,102441.53
2023-04-06T13:26:06.534Z,102440.63
2023-04-06T13:28:34.732Z,102435.34
2023-04-06T13:31:03.434Z,102437.97
2023-04-06T13:33:31.851Z,102440.63
2023-04-06T13:35:59.977Z,102444.19
2023-04-06T13:38:26.711Z,102437.13
2023-04-06T13:40:53.388Z,102437.13
2023-04-06T13:43:21.694Z,102433.63
2023-04-06T13:45:56.308Z,102428.34
2023-04-06T13:48:23.370Z,102427.47
2023-04-06T13:50:50.282Z,102429.22
2023-04-06T13:53:16.990Z,102425.75
2023-04-06T13:55:43.716Z,102423.13
2023-04-06T13:58:10.487Z,102426.66
2023-04-06T14:00:37.978Z,102417.00
2023-04-06T14:03:05.138Z,102417.84
2023-04-06T14:05:35.275Z,102412.56
2023-04-06T14:08:02.473Z,102411.69
2023-04-06T14:10:29.277Z,102413.47
2023-04-06T14:12:56.776Z,102414.34
2023-04-06T14:15:24.942Z,102409.06
2023-04-06T14:17:52.484Z,102408.19
2023-04-06T14:20:19.916Z,102409.94
2023-04-06T14:22:47.808Z,102413.47
2023-04-06T14:25:14.788Z,102402.91
2023-04-06T14:27:41.706Z,102402.06
2023-04-06T14:30:09.444Z,102401.22
2023-04-06T14:32:37.743Z,102402.13
2023-04-06T14:35:08.535Z,102400.34
2023-04-06T14:37:35.742Z,102401.22
2023-04-06T14:40:03.284Z,102395.94
2023-04-06T14:42:30.243Z,102395.91
2023-04-06T14:44:56.972Z,102398.56
2023-04-06T14:47:24.063Z,102402.97
2023-04-06T14:49:52.800Z,102394.16
2023-04-06T14:52:19.469Z,102396.84
2023-04-06T14:54:46.304Z,102395.97
2023-04-06T14:57:12.964Z,102387.16
2023-04-06T14:59:40.341Z,102387.13
2023-04-06T15:02:07.803Z,102381.88
2023-04-06T15:04:38.170Z,102380.09
2023-04-06T15:07:05.065Z,102379.22
2023-04-06T15:09:31.906Z,102380.13
2023-04-06T15:11:58.909Z,102381.00
2023-04-06T15:14:26.011Z,102381.00
2023-04-06T15:16:52.801Z,102383.63
2023-04-06T15:19:19.794Z,102378.34
2023-04-06T15:21:46.658Z,102388.00
2023-04-06T15:24:13.361Z,102382.72
2023-04-06T15:26:40.088Z,102388.91
2023-04-06T15:29:06.911Z,102388.00
2023-04-06T15:31:38.313Z,102385.34
2023-04-06T15:34:09.179Z,102386.22
2023-04-06T15:36:36.796Z,102383.56
2023-04-06T15:39:04.443Z,102393.19
2023-04-06T15:41:31.691Z,102390.56
2023-04-06T15:43:58.559Z,102391.38
2023-04-06T15:46:28.079Z,102394.84
2023-04-06T15:48:55.462Z,102390.44
2023-04-06T15:51:22.344Z,102383.38
2023-04-06T15:53:49.049Z,102385.06
2023-04-06T15:56:16.001Z,102384.09
2023-04-06T15:58:42.742Z,102389.31
2023-04-06T16:01:16.917Z,102387.50
2023-04-06T16:03:44.480Z,102389.19
2023-04-06T16:06:11.563Z,102375.13
2023-04-06T16:08:39.058Z,102382.16
2023-04-06T16:11:05.989Z,102381.22
2023-04-06T16:13:33.003Z,102381.19
2023-04-06T16:15:59.884Z,102388.19
2023-04-06T16:18:27.252Z,102388.09
2023-04-06T16:20:53.958Z,102387.22
2023-04-06T16:23:20.669Z,102385.41
2023-04-06T16:25:47.363Z,102376.59
2023-04-06T16:28:14.261Z,102385.34
2023-04-06T16:30:42.604Z,102383.56
2023-04-06T16:33:12.066Z,102392.31
2023-04-06T16:35:49.214Z,102392.28
2023-04-06T16:38:16.761Z,102392.25
2023-04-06T16:40:43.562Z,102393.06
2023-04-06T16:43:10.568Z,102393.94
2023-04-06T16:45:38.428Z,102392.19
2023-04-06T16:48:06.066Z,102392.19
2023-04-06T16:50:33.063Z,102400.03
2023-04-06T16:52:59.828Z,102398.25
2023-04-06T16:55:26.492Z,102395.63
2023-04-06T16:57:56.090Z,102398.22
2023-04-06T17:00:23.343Z,102397.28
2023-04-06T17:02:50.169Z,102406.88
2023-04-06T17:05:21.868Z,102401.63
2023-04-06T17:07:48.696Z,102404.28
2023-04-06T17:10:16.878Z,102406.91
2023-04-06T17:12:49.826Z,102404.31
2023-04-06T17:15:16.663Z,102408.69
2023-04-06T17:17:43.357Z,102410.34
2023-04-06T17:20:10.465Z,102410.34
2023-04-06T17:22:37.298Z,102412.94
2023-04-06T17:25:05.432Z,102419.06
2023-04-06T17:27:32.241Z,102418.13
2023-04-06T17:30:00.251Z,102417.16
2023-04-06T17:32:27.996Z,102430.25
2023-04-06T17:34:54.774Z,102425.81
2023-04-06T17:37:21.768Z,102424.03
2023-04-06T17:39:48.600Z,102428.31
2023-04-06T17:42:18.376Z,102428.22
2023-04-06T17:44:48.176Z,102429.94
2023-04-06T17:47:17.141Z,102432.47
2023-04-06T17:49:44.198Z,102429.78
2023-04-06T17:52:10.974Z,102432.44
2023-04-06T17:54:37.717Z,102431.53
2023-04-06T17:57:05.953Z,102424.50
2023-04-06T17:59:32.636Z,102429.69
2023-04-06T18:01:59.362Z,102436.66
2023-04-06T18:04:26.565Z,102423.47
2023-04-06T18:06:53.329Z,102437.41
2023-04-06T18:09:19.985Z,102427.59
2023-04-06T18:11:46.626Z,102431.00
2023-04-06T18:14:15.605Z,102431.75
2023-04-06T18:16:42.692Z,102435.22
2023-04-06T18:19:09.831Z,102438.66
2023-04-06T18:21:37.344Z,102435.97
2023-04-06T18:24:05.765Z,102434.22
2023-04-06T18:26:34.211Z,102439.53
2023-04-06T18:29:01.292Z,102440.41
2023-04-06T18:31:28.118Z,102440.53
2023-04-06T18:33:55.096Z,102447.53
2023-04-06T18:36:21.817Z,102444.03
2023-04-06T18:38:49.228Z,102449.34
2023-04-06T18:41:18.044Z,102454.66
2023-04-06T18:43:44.898Z,102452.84
2023-04-06T18:46:13.713Z,102457.16
2023-04-06T18:48:43.617Z,102453.66
2023-04-06T18:51:10.623Z,102453.66
2023-04-06T18:53:39.760Z,102463.28
2023-04-06T18:56:19.714Z,102465.81
2023-04-06T18:58:48.359Z,102462.19
2023-04-06T19:01:25.964Z,102465.75
2023-04-06T19:03:54.242Z,102466.53
2023-04-06T19:06:21.746Z,102462.94
2023-04-06T19:08:48.926Z,102455.84
2023-04-06T19:11:16.650Z,102468.09
2023-04-06T19:13:50.232Z,102461.84
2023-04-06T19:16:18.097Z,102457.41
2023-04-06T19:18:45.579Z,102460.91
2023-04-06T19:21:17.092Z,102466.09
2023-04-06T19:23:49.116Z,102469.63
2023-04-06T19:26:20.486Z,102464.34
2023-04-06T19:28:47.662Z,102469.59
2023-04-06T19:31:17.694Z,102466.09
2023-04-06T19:33:45.418Z,102461.78
2023-04-06T19:36:12.592Z,102468.75
2023-04-06T19:38:40.396Z,102460.81
2023-04-06T19:41:08.431Z,102466.03
2023-04-06T19:43:35.235Z,102471.22
2023-04-06T19:46:02.051Z,102473.84
2023-04-06T19:48:28.905Z,102472.00
2023-04-06T19:50:56.081Z,102474.47
2023-04-06T19:53:23.352Z,102474.34
2023-04-06T19:55:50.670Z,102469.03
2023-04-06T19:58:17.605Z,102478.59
2023-04-06T20:00:44.277Z,102475.16
2023-04-06T20:03:11.412Z,102482.16
2023-04-06T20:05:38.539Z,102482.16
2023-04-06T20:08:05.439Z,102482.16
2023-04-06T20:10:32.153Z,102482.16
2023-04-06T20:13:01.535Z,102482.16
2023-04-06T20:15:28.418Z,102475.16
2023-04-06T20:17:55.591Z,102470.84
2023-04-06T20:20:22.687Z,102474.34
2023-04-06T20:22:50.350Z,102468.22
2023-04-06T20:25:18.176Z,102470.84
2023-04-06T20:27:45.909Z,102472.59
2023-04-06T20:30:16.896Z,102474.34
2023-04-06T20:32:43.952Z,102475.22
2023-04-06T20:35:11.140Z,102474.28
2023-04-06T20:37:37.976Z,102470.72
2023-04-06T20:40:05.435Z,102474.16
2023-04-06T20:42:32.248Z,102474.09
2023-04-06T20:44:59.541Z,102472.31
2023-04-06T20:47:27.348Z,102471.38
2023-04-06T20:49:56.280Z,102472.19
2023-04-06T20:52:34.488Z,102462.44
2023-04-06T20:55:04.081Z,102465.94
2023-04-06T20:57:30.787Z,102462.38
2023-04-06T20:59:57.479Z,102465.84
2023-04-06T21:02:24.353Z,102467.53
2023-04-06T21:04:52.248Z,102474.47
2023-04-06T21:07:21.456Z,102466.47
2023-04-06T21:09:48.113Z,102475.28
2023-04-06T21:12:14.856Z,102474.50
2023-04-06T21:14:42.180Z,102474.59
2023-04-06T21:17:12.048Z,102480.69
2023-04-06T21:19:42.026Z,102477.19
2023-04-06T21:22:08.711Z,102478.06
2023-04-06T21:24:35.769Z,102473.75
2023-04-06T21:27:02.500Z,102478.13
2023-04-06T21:29:29.223Z,102472.94
2023-04-06T21:31:56.189Z,102473.75
2023-04-06T21:34:22.981Z,102467.56
2023-04-06T21:36:50.317Z,102475.38
2023-04-06T21:39:17.083Z,102481.47
2023-04-06T21:41:43.795Z,102475.34
2023-04-06T21:44:11.099Z,102477.88
2023-04-06T21:46:37.865Z,102473.47
2023-04-06T21:49:04.880Z,102473.44
2023-04-06T21:51:32.539Z,102475.25
2023-04-06T21:53:59.210Z,102471.78
2023-04-06T21:56:26.304Z,102470.09
2023-04-06T21:58:53.429Z,102461.31
2023-04-06T22:01:20.929Z,102473.59
2023-04-06T22:03:48.272Z,102470.03
2023-04-06T22:06:15.105Z,102467.34
2023-04-06T22:08:42.720Z,102472.56
2023-04-06T22:11:11.509Z,102472.50
2023-04-06T22:13:39.096Z,102476.88
2023-04-06T22:16:08.767Z,102472.47
2023-04-06T22:18:38.718Z,102473.31
2023-04-06T22:21:06.129Z,102474.13
2023-04-06T22:23:35.953Z,102468.88
2023-04-06T22:26:02.721Z,102472.31
2023-04-06T22:28:29.443Z,102475.78
2023-04-06T22:30:58.228Z,102469.72
2023-04-06T22:33:25.643Z,102466.19
2023-04-06T22:35:52.328Z,102467.91
2023-04-06T22:38:19.005Z,102469.53
2023-04-06T22:40:49.232Z,102465.00
2023-04-06T22:43:16.448Z,102464.00
2023-04-06T22:45:43.410Z,102450.66
2023-04-06T22:48:10.140Z,102457.84
2023-04-06T22:50:36.981Z,102468.44
2023-04-06T22:53:03.743Z,102468.44
2023-04-06T22:55:30.775Z,102465.88
2023-04-06T22:57:57.490Z,102465.81
2023-04-06T23:00:24.216Z,102478.00
2023-04-06T23:02:51.355Z,102479.63
2023-04-06T23:05:18.270Z,102469.97
2023-04-06T23:07:44.927Z,102471.69
2023-04-06T23:10:11.750Z,102475.19
2023-04-06T23:12:38.413Z,102475.19
2023-04-06T23:15:05.759Z,102469.00
2023-04-06T23:17:32.486Z,102472.50
2023-04-06T23:19:59.163Z,102467.25
2023-04-06T23:22:25.906Z,102463.81
2023-04-06T23:24:52.568Z,102475.97
2023-04-06T23:27:19.237Z,102468.97
2023-04-06T23:29:45.892Z,102469.78
2023-04-06T23:32:12.658Z,102466.22
2023-04-06T23:34:39.465Z,102470.59
2023-04-06T23:37:06.396Z,102465.34
2023-04-06T23:39:33.137Z,102469.63
2023-04-06T23:41:59.881Z,102471.34
2023-04-06T23:44:30.285Z,102464.31
2023-04-06T23:46:57.415Z,102466.13
2023-04-06T23:49:24.294Z,102464.31
2023-04-06T23:51:50.940Z,102467.81
2023-04-06T23:54:17.605Z,102460.00
2023-04-06T23:56:44.321Z,102458.28
2023-04-06T23:59:11.022Z,102453.91
